sensor_id;sensor_type;location;lat;lon;timestamp;P1;durP1;ratioP1;P2;durP2;ratioP2
9124;SDS011;4597;48.730;9.114;2023-11-19T00:00:21;1.20;;;1.13;;
9124;SDS011;4597;48.730;9.114;2023-11-19T00:02:46;1.40;;;1.30;;
9124;SDS011;4597;48.730;9.114;2023-11-19T00:05:12;1.40;;;1.30;;
9124;SDS011;4597;48.730;9.114;2023-11-19T00:07:38;1.70;;;1.60;;
9124;SDS011;4597;48.730;9.114;2023-11-19T00:10:11;1.30;;;1.30;;
9124;SDS011;4597;48.730;9.114;2023-11-19T00:12:41;1.57;;;1.43;;
9124;SDS011;4597;48.730;9.114;2023-11-19T00:15:09;1.60;;;1.50;;
9124;SDS011;4597;48.730;9.114;2023-11-19T00:17:36;1.50;;;1.40;;
9124;SDS011;4597;48.730;9.114;2023-11-19T00:20:09;1.77;;;1.67;;
9124;SDS011;4597;48.730;9.114;2023-11-19T00:22:35;1.30;;;1.30;;
9124;SDS011;4597;48.730;9.114;2023-11-19T00:25:01;1.67;;;1.57;;
9124;SDS011;4597;48.730;9.114;2023-11-19T00:27:27;1.37;;;1.27;;
9124;SDS011;4597;48.730;9.114;2023-11-19T00:29:52;1.10;;;1.10;;
9124;SDS011;4597;48.730;9.114;2023-11-19T00:32:18;1.17;;;1.17;;
9124;SDS011;4597;48.730;9.114;2023-11-19T00:34:44;1.57;;;1.47;;
9124;SDS011;4597;48.730;9.114;2023-11-19T00:37:09;1.60;;;1.50;;
9124;SDS011;4597;48.730;9.114;2023-11-19T00:39:35;1.47;;;1.40;;
9124;SDS011;4597;48.730;9.114;2023-11-19T00:42:01;1.77;;;1.43;;
9124;SDS011;4597;48.730;9.114;2023-11-19T00:44:26;1.70;;;1.60;;
9124;SDS011;4597;48.730;9.114;2023-11-19T00:46:51;1.90;;;1.70;;
9124;SDS011;4597;48.730;9.114;2023-11-19T00:49:17;1.83;;;1.73;;
9124;SDS011;4597;48.730;9.114;2023-11-19T00:51:42;2.10;;;1.97;;
9124;SDS011;4597;48.730;9.114;2023-11-19T00:54:08;1.93;;;1.83;;
9124;SDS011;4597;48.730;9.114;2023-11-19T00:56:33;1.70;;;1.60;;
9124;SDS011;4597;48.730;9.114;2023-11-19T00:58:59;1.90;;;1.70;;
9124;SDS011;4597;48.730;9.114;2023-11-19T01:01:25;1.63;;;1.60;;
9124;SDS011;4597;48.730;9.114;2023-11-19T01:03:51;1.70;;;1.60;;
9124;SDS011;4597;48.730;9.114;2023-11-19T01:06:26;1.90;;;1.80;;
9124;SDS011;4597;48.730;9.114;2023-11-19T01:08:52;1.93;;;1.83;;
9124;SDS011;4597;48.730;9.114;2023-11-19T01:11:21;1.60;;;1.50;;
9124;SDS011;4597;48.730;9.114;2023-11-19T01:13:47;1.93;;;1.50;;
9124;SDS011;4597;48.730;9.114;2023-11-19T01:16:13;1.50;;;1.50;;
9124;SDS011;4597;48.730;9.114;2023-11-19T01:18:38;1.80;;;1.70;;
9124;SDS011;4597;48.730;9.114;2023-11-19T01:21:04;1.63;;;1.53;;
9124;SDS011;4597;48.730;9.114;2023-11-19T01:23:30;1.70;;;1.60;;
9124;SDS011;4597;48.730;9.114;2023-11-19T01:25:56;1.97;;;1.77;;
9124;SDS011;4597;48.730;9.114;2023-11-19T01:28:21;1.37;;;1.37;;
9124;SDS011;4597;48.730;9.114;2023-11-19T01:30:47;2.57;;;2.30;;
9124;SDS011;4597;48.730;9.114;2023-11-19T01:33:15;1.70;;;1.60;;
9124;SDS011;4597;48.730;9.114;2023-11-19T01:35:40;1.80;;;1.70;;
9124;SDS011;4597;48.730;9.114;2023-11-19T01:38:06;1.80;;;1.70;;
9124;SDS011;4597;48.730;9.114;2023-11-19T01:40:33;1.67;;;1.57;;
9124;SDS011;4597;48.730;9.114;2023-11-19T01:42:59;1.60;;;1.60;;
9124;SDS011;4597;48.730;9.114;2023-11-19T01:45:28;2.17;;;2.07;;
9124;SDS011;4597;48.730;9.114;2023-11-19T01:47:58;1.70;;;1.60;;
9124;SDS011;4597;48.730;9.114;2023-11-19T01:50:26;1.80;;;1.70;;
9124;SDS011;4597;48.730;9.114;2023-11-19T01:52:52;1.80;;;1.70;;
9124;SDS011;4597;48.730;9.114;2023-11-19T01:55:19;1.90;;;1.80;;
9124;SDS011;4597;48.730;9.114;2023-11-19T01:57:45;1.87;;;1.77;;
9124;SDS011;4597;48.730;9.114;2023-11-19T02:00:12;1.70;;;1.70;;
9124;SDS011;4597;48.730;9.114;2023-11-19T02:02:39;1.80;;;1.70;;
9124;SDS011;4597;48.730;9.114;2023-11-19T02:05:05;2.17;;;1.90;;
9124;SDS011;4597;48.730;9.114;2023-11-19T02:07:32;1.80;;;1.70;;
9124;SDS011;4597;48.730;9.114;2023-11-19T02:09:57;2.20;;;2.00;;
9124;SDS011;4597;48.730;9.114;2023-11-19T02:12:27;1.80;;;1.70;;
9124;SDS011;4597;48.730;9.114;2023-11-19T02:14:53;1.47;;;1.47;;
9124;SDS011;4597;48.730;9.114;2023-11-19T02:17:29;2.10;;;2.00;;
9124;SDS011;4597;48.730;9.114;2023-11-19T02:19:59;2.10;;;1.90;;
9124;SDS011;4597;48.730;9.114;2023-11-19T02:22:25;2.07;;;1.97;;
9124;SDS011;4597;48.730;9.114;2023-11-19T02:24:51;1.93;;;1.83;;
9124;SDS011;4597;48.730;9.114;2023-11-19T02:27:27;1.67;;;1.63;;
9124;SDS011;4597;48.730;9.114;2023-11-19T02:29:59;1.70;;;1.70;;
9124;SDS011;4597;48.730;9.114;2023-11-19T02:32:27;2.80;;;1.90;;
9124;SDS011;4597;48.730;9.114;2023-11-19T02:34:55;1.80;;;1.70;;
9124;SDS011;4597;48.730;9.114;2023-11-19T02:37:21;2.03;;;1.93;;
9124;SDS011;4597;48.730;9.114;2023-11-19T02:39:46;2.63;;;2.07;;
9124;SDS011;4597;48.730;9.114;2023-11-19T02:42:12;2.40;;;2.30;;
9124;SDS011;4597;48.730;9.114;2023-11-19T02:44:39;2.60;;;2.40;;
9124;SDS011;4597;48.730;9.114;2023-11-19T02:47:08;2.17;;;2.07;;
9124;SDS011;4597;48.730;9.114;2023-11-19T02:49:34;2.50;;;2.30;;
9124;SDS011;4597;48.730;9.114;2023-11-19T02:51:59;2.53;;;2.37;;
9124;SDS011;4597;48.730;9.114;2023-11-19T02:54:24;2.00;;;1.90;;
9124;SDS011;4597;48.730;9.114;2023-11-19T02:56:52;2.23;;;2.13;;
9124;SDS011;4597;48.730;9.114;2023-11-19T02:59:20;2.40;;;2.20;;
9124;SDS011;4597;48.730;9.114;2023-11-19T03:01:53;2.60;;;2.43;;
9124;SDS011;4597;48.730;9.114;2023-11-19T03:04:19;2.20;;;2.00;;
9124;SDS011;4597;48.730;9.114;2023-11-19T03:06:48;2.00;;;1.90;;
9124;SDS011;4597;48.730;9.114;2023-11-19T03:09:13;2.10;;;2.00;;
9124;SDS011;4597;48.730;9.114;2023-11-19T03:11:39;2.30;;;2.20;;
9124;SDS011;4597;48.730;9.114;2023-11-19T03:14:04;2.40;;;2.20;;
9124;SDS011;4597;48.730;9.114;2023-11-19T03:16:30;2.70;;;2.50;;
9124;SDS011;4597;48.730;9.114;2023-11-19T03:18:55;3.07;;;2.87;;
9124;SDS011;4597;48.730;9.114;2023-11-19T03:21:30;2.50;;;2.40;;
9124;SDS011;4597;48.730;9.114;2023-11-19T03:23:57;2.43;;;2.23;;
9124;SDS011;4597;48.730;9.114;2023-11-19T03:26:25;2.23;;;2.13;;
9124;SDS011;4597;48.730;9.114;2023-11-19T03:28:54;2.00;;;1.90;;
9124;SDS011;4597;48.730;9.114;2023-11-19T03:31:21;2.83;;;2.63;;
9124;SDS011;4597;48.730;9.114;2023-11-19T03:33:46;2.47;;;2.30;;
9124;SDS011;4597;48.730;9.114;2023-11-19T03:36:12;2.33;;;2.13;;
9124;SDS011;4597;48.730;9.114;2023-11-19T03:38:37;2.93;;;2.73;;
9124;SDS011;4597;48.730;9.114;2023-11-19T03:41:10;3.40;;;3.10;;
9124;SDS011;4597;48.730;9.114;2023-11-19T03:43:36;2.80;;;2.60;;
9124;SDS011;4597;48.730;9.114;2023-11-19T03:46:02;3.07;;;2.87;;
9124;SDS011;4597;48.730;9.114;2023-11-19T03:48:27;2.70;;;2.50;;
9124;SDS011;4597;48.730;9.114;2023-11-19T03:50:53;2.90;;;2.70;;
9124;SDS011;4597;48.730;9.114;2023-11-19T03:53:19;2.63;;;2.43;;
9124;SDS011;4597;48.730;9.114;2023-11-19T03:55:44;2.83;;;2.63;;
9124;SDS011;4597;48.730;9.114;2023-11-19T03:58:10;2.53;;;2.33;;
9124;SDS011;4597;48.730;9.114;2023-11-19T04:00:37;2.80;;;2.60;;
9124;SDS011;4597;48.730;9.114;2023-11-19T04:03:02;2.77;;;2.50;;
9124;SDS011;4597;48.730;9.114;2023-11-19T04:05:28;2.60;;;2.40;;
9124;SDS011;4597;48.730;9.114;2023-11-19T04:07:53;2.77;;;2.57;;
9124;SDS011;4597;48.730;9.114;2023-11-19T04:10:19;3.03;;;2.83;;
9124;SDS011;4597;48.730;9.114;2023-11-19T04:12:45;2.63;;;2.43;;
9124;SDS011;4597;48.730;9.114;2023-11-19T04:15:11;2.43;;;2.33;;
9124;SDS011;4597;48.730;9.114;2023-11-19T04:17:37;2.73;;;2.53;;
9124;SDS011;4597;48.730;9.114;2023-11-19T04:20:02;2.07;;;1.97;;
9124;SDS011;4597;48.730;9.114;2023-11-19T04:22:29;1.60;;;1.50;;
9124;SDS011;4597;48.730;9.114;2023-11-19T04:24:54;0.70;;;0.70;;
9124;SDS011;4597;48.730;9.114;2023-11-19T04:27:20;0.70;;;0.70;;
9124;SDS011;4597;48.730;9.114;2023-11-19T04:29:45;0.50;;;0.50;;
9124;SDS011;4597;48.730;9.114;2023-11-19T04:32:12;0.80;;;0.80;;
9124;SDS011;4597;48.730;9.114;2023-11-19T04:34:37;0.80;;;0.80;;
9124;SDS011;4597;48.730;9.114;2023-11-19T04:37:03;0.70;;;0.70;;
9124;SDS011;4597;48.730;9.114;2023-11-19T04:39:29;0.60;;;0.60;;
9124;SDS011;4597;48.730;9.114;2023-11-19T04:41:55;0.77;;;0.77;;
9124;SDS011;4597;48.730;9.114;2023-11-19T04:44:21;0.80;;;0.80;;
9124;SDS011;4597;48.730;9.114;2023-11-19T04:46:47;0.60;;;0.60;;
9124;SDS011;4597;48.730;9.114;2023-11-19T04:49:13;0.63;;;0.63;;
9124;SDS011;4597;48.730;9.114;2023-11-19T04:51:43;0.50;;;0.50;;
9124;SDS011;4597;48.730;9.114;2023-11-19T04:54:10;0.40;;;0.40;;
9124;SDS011;4597;48.730;9.114;2023-11-19T04:56:36;0.50;;;0.50;;
9124;SDS011;4597;48.730;9.114;2023-11-19T04:59:02;0.30;;;0.30;;
9124;SDS011;4597;48.730;9.114;2023-11-19T05:01:29;0.30;;;0.30;;
9124;SDS011;4597;48.730;9.114;2023-11-19T05:03:55;0.27;;;0.27;;
9124;SDS011;4597;48.730;9.114;2023-11-19T05:06:25;0.20;;;0.20;;
9124;SDS011;4597;48.730;9.114;2023-11-19T05:08:54;0.60;;;0.20;;
9124;SDS011;4597;48.730;9.114;2023-11-19T05:11:21;0.20;;;0.20;;
9124;SDS011;4597;48.730;9.114;2023-11-19T05:13:47;0.23;;;0.23;;
9124;SDS011;4597;48.730;9.114;2023-11-19T05:16:12;0.27;;;0.27;;
9124;SDS011;4597;48.730;9.114;2023-11-19T05:18:41;0.20;;;0.20;;
9124;SDS011;4597;48.730;9.114;2023-11-19T05:21:06;0.30;;;0.30;;
9124;SDS011;4597;48.730;9.114;2023-11-19T05:23:32;0.30;;;0.30;;
9124;SDS011;4597;48.730;9.114;2023-11-19T05:26:01;0.30;;;0.30;;
9124;SDS011;4597;48.730;9.114;2023-11-19T05:28:27;0.30;;;0.30;;
9124;SDS011;4597;48.730;9.114;2023-11-19T05:30:52;0.30;;;0.30;;
9124;SDS011;4597;48.730;9.114;2023-11-19T05:33:18;0.70;;;0.40;;
9124;SDS011;4597;48.730;9.114;2023-11-19T05:35:43;0.43;;;0.43;;
9124;SDS011;4597;48.730;9.114;2023-11-19T05:38:09;0.30;;;0.30;;
9124;SDS011;4597;48.730;9.114;2023-11-19T05:40:35;0.27;;;0.27;;
9124;SDS011;4597;48.730;9.114;2023-11-19T05:43:01;0.87;;;0.30;;
9124;SDS011;4597;48.730;9.114;2023-11-19T05:45:26;0.30;;;0.30;;
9124;SDS011;4597;48.730;9.114;2023-11-19T05:47:52;0.30;;;0.30;;
9124;SDS011;4597;48.730;9.114;2023-11-19T05:50:18;1.03;;;0.50;;
9124;SDS011;4597;48.730;9.114;2023-11-19T05:52:43;0.23;;;0.23;;
9124;SDS011;4597;48.730;9.114;2023-11-19T05:55:09;0.43;;;0.40;;
9124;SDS011;4597;48.730;9.114;2023-11-19T05:57:36;0.30;;;0.30;;
9124;SDS011;4597;48.730;9.114;2023-11-19T06:00:02;0.30;;;0.30;;
9124;SDS011;4597;48.730;9.114;2023-11-19T06:02:32;0.30;;;0.30;;
9124;SDS011;4597;48.730;9.114;2023-11-19T06:04:57;0.30;;;0.30;;
9124;SDS011;4597;48.730;9.114;2023-11-19T06:07:23;0.20;;;0.20;;
9124;SDS011;4597;48.730;9.114;2023-11-19T06:09:50;0.30;;;0.30;;
9124;SDS011;4597;48.730;9.114;2023-11-19T06:12:15;0.40;;;0.40;;
9124;SDS011;4597;48.730;9.114;2023-11-19T06:14:41;0.40;;;0.40;;
9124;SDS011;4597;48.730;9.114;2023-11-19T06:17:06;0.30;;;0.30;;
9124;SDS011;4597;48.730;9.114;2023-11-19T06:19:33;0.40;;;0.40;;
9124;SDS011;4597;48.730;9.114;2023-11-19T06:21:59;0.73;;;0.73;;
9124;SDS011;4597;48.730;9.114;2023-11-19T06:24:24;0.70;;;0.70;;
9124;SDS011;4597;48.730;9.114;2023-11-19T06:26:50;0.77;;;0.77;;
9124;SDS011;4597;48.730;9.114;2023-11-19T06:29:15;0.70;;;0.70;;
9124;SDS011;4597;48.730;9.114;2023-11-19T06:31:44;0.47;;;0.47;;
9124;SDS011;4597;48.730;9.114;2023-11-19T06:34:10;0.80;;;0.80;;
9124;SDS011;4597;48.730;9.114;2023-11-19T06:36:35;0.50;;;0.50;;
9124;SDS011;4597;48.730;9.114;2023-11-19T06:39:01;0.40;;;0.40;;
9124;SDS011;4597;48.730;9.114;2023-11-19T06:41:27;0.40;;;0.40;;
9124;SDS011;4597;48.730;9.114;2023-11-19T06:43:54;0.40;;;0.40;;
9124;SDS011;4597;48.730;9.114;2023-11-19T06:46:19;0.50;;;0.50;;
9124;SDS011;4597;48.730;9.114;2023-11-19T06:48:45;0.60;;;0.60;;
9124;SDS011;4597;48.730;9.114;2023-11-19T06:51:11;0.40;;;0.40;;
9124;SDS011;4597;48.730;9.114;2023-11-19T06:53:37;0.40;;;0.40;;
9124;SDS011;4597;48.730;9.114;2023-11-19T06:56:04;0.50;;;0.50;;
9124;SDS011;4597;48.730;9.114;2023-11-19T06:58:31;0.63;;;0.50;;
9124;SDS011;4597;48.730;9.114;2023-11-19T07:01:00;0.40;;;0.40;;
9124;SDS011;4597;48.730;9.114;2023-11-19T07:03:26;0.20;;;0.20;;
9124;SDS011;4597;48.730;9.114;2023-11-19T07:05:51;0.23;;;0.23;;
9124;SDS011;4597;48.730;9.114;2023-11-19T07:08:17;0.20;;;0.20;;
9124;SDS011;4597;48.730;9.114;2023-11-19T07:10:42;0.40;;;0.40;;
9124;SDS011;4597;48.730;9.114;2023-11-19T07:13:08;0.47;;;0.47;;
9124;SDS011;4597;48.730;9.114;2023-11-19T07:15:34;0.30;;;0.30;;
9124;SDS011;4597;48.730;9.114;2023-11-19T07:18:00;0.30;;;0.30;;
9124;SDS011;4597;48.730;9.114;2023-11-19T07:20:25;0.30;;;0.30;;
9124;SDS011;4597;48.730;9.114;2023-11-19T07:22:51;0.27;;;0.27;;
9124;SDS011;4597;48.730;9.114;2023-11-19T07:25:17;0.40;;;0.40;;
9124;SDS011;4597;48.730;9.114;2023-11-19T07:27:42;0.53;;;0.53;;
9124;SDS011;4597;48.730;9.114;2023-11-19T07:30:08;0.40;;;0.40;;
9124;SDS011;4597;48.730;9.114;2023-11-19T07:32:34;0.40;;;0.40;;
9124;SDS011;4597;48.730;9.114;2023-11-19T07:34:59;0.40;;;0.40;;
9124;SDS011;4597;48.730;9.114;2023-11-19T07:37:25;0.37;;;0.37;;
9124;SDS011;4597;48.730;9.114;2023-11-19T07:39:51;0.70;;;0.70;;
9124;SDS011;4597;48.730;9.114;2023-11-19T07:42:16;2.93;;;1.13;;
9124;SDS011;4597;48.730;9.114;2023-11-19T07:44:43;0.70;;;0.70;;
9124;SDS011;4597;48.730;9.114;2023-11-19T07:47:09;0.53;;;0.53;;
9124;SDS011;4597;48.730;9.114;2023-11-19T07:49:35;1.03;;;1.03;;
9124;SDS011;4597;48.730;9.114;2023-11-19T07:52:00;1.10;;;1.10;;
9124;SDS011;4597;48.730;9.114;2023-11-19T07:54:28;1.87;;;1.20;;
9124;SDS011;4597;48.730;9.114;2023-11-19T07:56:53;0.97;;;0.90;;
9124;SDS011;4597;48.730;9.114;2023-11-19T07:59:19;1.00;;;1.00;;
9124;SDS011;4597;48.730;9.114;2023-11-19T08:01:44;0.90;;;0.90;;
9124;SDS011;4597;48.730;9.114;2023-11-19T08:04:10;0.83;;;0.83;;
9124;SDS011;4597;48.730;9.114;2023-11-19T08:06:36;1.20;;;1.20;;
9124;SDS011;4597;48.730;9.114;2023-11-19T08:09:01;1.07;;;1.03;;
9124;SDS011;4597;48.730;9.114;2023-11-19T08:11:27;0.73;;;0.60;;
9124;SDS011;4597;48.730;9.114;2023-11-19T08:13:53;0.70;;;0.70;;
9124;SDS011;4597;48.730;9.114;2023-11-19T08:16:18;0.63;;;0.63;;
9124;SDS011;4597;48.730;9.114;2023-11-19T08:18:44;0.77;;;0.77;;
9124;SDS011;4597;48.730;9.114;2023-11-19T08:21:09;0.63;;;0.63;;
9124;SDS011;4597;48.730;9.114;2023-11-19T08:23:35;0.43;;;0.43;;
9124;SDS011;4597;48.730;9.114;2023-11-19T08:26:01;1.37;;;0.60;;
9124;SDS011;4597;48.730;9.114;2023-11-19T08:28:27;0.77;;;0.77;;
9124;SDS011;4597;48.730;9.114;2023-11-19T08:30:52;0.40;;;0.40;;
9124;SDS011;4597;48.730;9.114;2023-11-19T08:33:18;0.60;;;0.60;;
9124;SDS011;4597;48.730;9.114;2023-11-19T08:35:43;0.87;;;0.87;;
9124;SDS011;4597;48.730;9.114;2023-11-19T08:38:10;0.60;;;0.60;;
9124;SDS011;4597;48.730;9.114;2023-11-19T08:40:35;0.60;;;0.60;;
9124;SDS011;4597;48.730;9.114;2023-11-19T08:43:01;0.60;;;0.60;;
9124;SDS011;4597;48.730;9.114;2023-11-19T08:45:26;0.77;;;0.60;;
9124;SDS011;4597;48.730;9.114;2023-11-19T08:47:52;0.50;;;0.50;;
9124;SDS011;4597;48.730;9.114;2023-11-19T08:50:17;0.70;;;0.70;;
9124;SDS011;4597;48.730;9.114;2023-11-19T08:52:43;0.60;;;0.60;;
9124;SDS011;4597;48.730;9.114;2023-11-19T08:55:08;1.60;;;0.50;;
9124;SDS011;4597;48.730;9.114;2023-11-19T08:57:34;1.57;;;0.70;;
9124;SDS011;4597;48.730;9.114;2023-11-19T09:00:00;0.60;;;0.60;;
9124;SDS011;4597;48.730;9.114;2023-11-19T09:02:26;0.50;;;0.50;;
9124;SDS011;4597;48.730;9.114;2023-11-19T09:04:51;0.37;;;0.37;;
9124;SDS011;4597;48.730;9.114;2023-11-19T09:07:17;0.40;;;0.40;;
9124;SDS011;4597;48.730;9.114;2023-11-19T09:09:42;0.50;;;0.50;;
9124;SDS011;4597;48.730;9.114;2023-11-19T09:12:08;0.50;;;0.50;;
9124;SDS011;4597;48.730;9.114;2023-11-19T09:14:33;0.73;;;0.50;;
9124;SDS011;4597;48.730;9.114;2023-11-19T09:16:59;0.50;;;0.50;;
9124;SDS011;4597;48.730;9.114;2023-11-19T09:19:25;0.60;;;0.60;;
9124;SDS011;4597;48.730;9.114;2023-11-19T09:21:54;0.40;;;0.40;;
9124;SDS011;4597;48.730;9.114;2023-11-19T09:24:19;1.50;;;0.70;;
9124;SDS011;4597;48.730;9.114;2023-11-19T09:26:45;0.30;;;0.30;;
9124;SDS011;4597;48.730;9.114;2023-11-19T09:29:10;0.97;;;0.70;;
9124;SDS011;4597;48.730;9.114;2023-11-19T09:31:39;1.10;;;0.50;;
9124;SDS011;4597;48.730;9.114;2023-11-19T09:34:05;0.60;;;0.60;;
9124;SDS011;4597;48.730;9.114;2023-11-19T09:36:31;0.60;;;0.60;;
9124;SDS011;4597;48.730;9.114;2023-11-19T09:38:56;0.53;;;0.40;;
9124;SDS011;4597;48.730;9.114;2023-11-19T09:41:22;0.40;;;0.40;;
9124;SDS011;4597;48.730;9.114;2023-11-19T09:43:48;0.30;;;0.30;;
9124;SDS011;4597;48.730;9.114;2023-11-19T09:46:15;0.40;;;0.40;;
9124;SDS011;4597;48.730;9.114;2023-11-19T09:48:41;0.40;;;0.40;;
9124;SDS011;4597;48.730;9.114;2023-11-19T09:51:08;0.40;;;0.40;;
9124;SDS011;4597;48.730;9.114;2023-11-19T09:53:35;0.63;;;0.40;;
9124;SDS011;4597;48.730;9.114;2023-11-19T09:56:02;0.63;;;0.60;;
9124;SDS011;4597;48.730;9.114;2023-11-19T09:58:29;0.40;;;0.40;;
9124;SDS011;4597;48.730;9.114;2023-11-19T10:00:58;0.40;;;0.40;;
9124;SDS011;4597;48.730;9.114;2023-11-19T10:03:24;0.63;;;0.60;;
9124;SDS011;4597;48.730;9.114;2023-11-19T10:05:54;0.90;;;0.63;;
9124;SDS011;4597;48.730;9.114;2023-11-19T10:08:21;0.40;;;0.40;;
9124;SDS011;4597;48.730;9.114;2023-11-19T10:10:47;0.83;;;0.40;;
9124;SDS011;4597;48.730;9.114;2023-11-19T10:13:13;1.70;;;0.60;;
9124;SDS011;4597;48.730;9.114;2023-11-19T10:15:39;0.60;;;0.60;;
9124;SDS011;4597;48.730;9.114;2023-11-19T10:18:05;0.60;;;0.47;;
9124;SDS011;4597;48.730;9.114;2023-11-19T10:20:37;1.10;;;0.63;;
9124;SDS011;4597;48.730;9.114;2023-11-19T10:23:05;0.50;;;0.50;;
9124;SDS011;4597;48.730;9.114;2023-11-19T10:25:31;0.40;;;0.40;;
9124;SDS011;4597;48.730;9.114;2023-11-19T10:27:58;0.50;;;0.50;;
9124;SDS011;4597;48.730;9.114;2023-11-19T10:30:29;0.70;;;0.70;;
9124;SDS011;4597;48.730;9.114;2023-11-19T10:35:28;0.43;;;0.43;;
9124;SDS011;4597;48.730;9.114;2023-11-19T10:37:54;0.40;;;0.40;;
9124;SDS011;4597;48.730;9.114;2023-11-19T10:40:19;1.27;;;0.70;;
9124;SDS011;4597;48.730;9.114;2023-11-19T10:42:45;0.40;;;0.40;;
9124;SDS011;4597;48.730;9.114;2023-11-19T10:45:21;0.50;;;0.50;;
9124;SDS011;4597;48.730;9.114;2023-11-19T10:47:48;0.40;;;0.40;;
9124;SDS011;4597;48.730;9.114;2023-11-19T10:50:16;0.50;;;0.50;;
9124;SDS011;4597;48.730;9.114;2023-11-19T10:52:42;0.60;;;0.60;;
9124;SDS011;4597;48.730;9.114;2023-11-19T10:55:09;0.70;;;0.70;;
9124;SDS011;4597;48.730;9.114;2023-11-19T10:57:39;0.40;;;0.40;;
9124;SDS011;4597;48.730;9.114;2023-11-19T11:00:10;0.50;;;0.50;;
9124;SDS011;4597;48.730;9.114;2023-11-19T11:02:43;0.83;;;0.60;;
9124;SDS011;4597;48.730;9.114;2023-11-19T11:05:13;0.40;;;0.40;;
9124;SDS011;4597;48.730;9.114;2023-11-19T11:07:39;0.53;;;0.53;;
9124;SDS011;4597;48.730;9.114;2023-11-19T11:10:08;0.40;;;0.40;;
9124;SDS011;4597;48.730;9.114;2023-11-19T11:12:36;0.50;;;0.50;;
9124;SDS011;4597;48.730;9.114;2023-11-19T11:15:03;0.50;;;0.50;;
9124;SDS011;4597;48.730;9.114;2023-11-19T11:17:30;0.50;;;0.50;;
9124;SDS011;4597;48.730;9.114;2023-11-19T11:19:58;0.60;;;0.60;;
9124;SDS011;4597;48.730;9.114;2023-11-19T11:22:23;0.37;;;0.37;;
9124;SDS011;4597;48.730;9.114;2023-11-19T11:25:06;0.60;;;0.60;;
9124;SDS011;4597;48.730;9.114;2023-11-19T11:27:52;1.63;;;0.80;;
9124;SDS011;4597;48.730;9.114;2023-11-19T11:33:44;0.70;;;0.70;;
9124;SDS011;4597;48.730;9.114;2023-11-19T11:36:11;0.60;;;0.60;;
9124;SDS011;4597;48.730;9.114;2023-11-19T11:38:44;0.93;;;0.70;;
9124;SDS011;4597;48.730;9.114;2023-11-19T11:43:47;2.63;;;0.67;;
9124;SDS011;4597;48.730;9.114;2023-11-19T11:54:09;0.50;;;0.50;;
9124;SDS011;4597;48.730;9.114;2023-11-19T11:59:37;0.40;;;0.40;;
9124;SDS011;4597;48.730;9.114;2023-11-19T12:02:03;0.40;;;0.40;;
9124;SDS011;4597;48.730;9.114;2023-11-19T12:04:29;0.60;;;0.60;;
9124;SDS011;4597;48.730;9.114;2023-11-19T12:09:30;0.67;;;0.67;;
9124;SDS011;4597;48.730;9.114;2023-11-19T12:20:02;0.67;;;0.67;;
9124;SDS011;4597;48.730;9.114;2023-11-19T12:22:31;0.93;;;0.73;;
9124;SDS011;4597;48.730;9.114;2023-11-19T12:24:56;1.33;;;0.80;;
9124;SDS011;4597;48.730;9.114;2023-11-19T12:27:23;0.50;;;0.50;;
9124;SDS011;4597;48.730;9.114;2023-11-19T12:29:48;0.87;;;0.60;;
9124;SDS011;4597;48.730;9.114;2023-11-19T12:32:14;0.73;;;0.53;;
9124;SDS011;4597;48.730;9.114;2023-11-19T12:34:40;0.60;;;0.60;;
9124;SDS011;4597;48.730;9.114;2023-11-19T12:37:05;0.70;;;0.70;;
9124;SDS011;4597;48.730;9.114;2023-11-19T12:39:31;0.93;;;0.80;;
9124;SDS011;4597;48.730;9.114;2023-11-19T12:41:57;0.73;;;0.73;;
9124;SDS011;4597;48.730;9.114;2023-11-19T12:44:25;0.70;;;0.70;;
9124;SDS011;4597;48.730;9.114;2023-11-19T12:47:00;1.40;;;0.87;;
9124;SDS011;4597;48.730;9.114;2023-11-19T12:49:30;0.60;;;0.60;;
9124;SDS011;4597;48.730;9.114;2023-11-19T12:51:56;0.50;;;0.50;;
9124;SDS011;4597;48.730;9.114;2023-11-19T12:54:36;0.70;;;0.50;;
9124;SDS011;4597;48.730;9.114;2023-11-19T12:57:02;0.70;;;0.70;;
9124;SDS011;4597;48.730;9.114;2023-11-19T12:59:30;0.60;;;0.60;;
9124;SDS011;4597;48.730;9.114;2023-11-19T13:01:59;2.43;;;0.93;;
9124;SDS011;4597;48.730;9.114;2023-11-19T13:04:29;0.70;;;0.70;;
9124;SDS011;4597;48.730;9.114;2023-11-19T13:06:58;0.60;;;0.60;;
9124;SDS011;4597;48.730;9.114;2023-11-19T13:09:25;1.13;;;1.13;;
9124;SDS011;4597;48.730;9.114;2023-11-19T13:11:52;0.60;;;0.60;;
9124;SDS011;4597;48.730;9.114;2023-11-19T13:14:18;0.50;;;0.50;;
9124;SDS011;4597;48.730;9.114;2023-11-19T13:16:45;0.50;;;0.50;;
9124;SDS011;4597;48.730;9.114;2023-11-19T13:19:11;0.60;;;0.60;;
9124;SDS011;4597;48.730;9.114;2023-11-19T13:21:37;0.50;;;0.50;;
9124;SDS011;4597;48.730;9.114;2023-11-19T13:24:04;0.70;;;0.70;;
9124;SDS011;4597;48.730;9.114;2023-11-19T13:26:30;0.70;;;0.70;;
9124;SDS011;4597;48.730;9.114;2023-11-19T13:28:56;1.80;;;0.87;;
9124;SDS011;4597;48.730;9.114;2023-11-19T13:31:22;0.60;;;0.60;;
9124;SDS011;4597;48.730;9.114;2023-11-19T13:33:47;0.50;;;0.50;;
9124;SDS011;4597;48.730;9.114;2023-11-19T13:36:13;0.70;;;0.70;;
9124;SDS011;4597;48.730;9.114;2023-11-19T13:38:38;2.30;;;1.10;;
9124;SDS011;4597;48.730;9.114;2023-11-19T13:41:06;0.70;;;0.70;;
9124;SDS011;4597;48.730;9.114;2023-11-19T13:43:31;0.60;;;0.60;;
9124;SDS011;4597;48.730;9.114;2023-11-19T13:45:57;0.60;;;0.60;;
9124;SDS011;4597;48.730;9.114;2023-11-19T13:48:23;0.70;;;0.70;;
9124;SDS011;4597;48.730;9.114;2023-11-19T13:50:49;0.60;;;0.60;;
9124;SDS011;4597;48.730;9.114;2023-11-19T13:53:15;0.60;;;0.60;;
9124;SDS011;4597;48.730;9.114;2023-11-19T13:55:41;0.70;;;0.70;;
9124;SDS011;4597;48.730;9.114;2023-11-19T13:58:07;0.50;;;0.50;;
9124;SDS011;4597;48.730;9.114;2023-11-19T14:00:34;0.60;;;0.60;;
9124;SDS011;4597;48.730;9.114;2023-11-19T14:02:59;0.70;;;0.70;;
9124;SDS011;4597;48.730;9.114;2023-11-19T14:05:25;0.60;;;0.60;;
9124;SDS011;4597;48.730;9.114;2023-11-19T14:07:51;0.70;;;0.70;;
9124;SDS011;4597;48.730;9.114;2023-11-19T14:10:17;0.57;;;0.57;;
9124;SDS011;4597;48.730;9.114;2023-11-19T14:12:42;0.80;;;0.80;;
9124;SDS011;4597;48.730;9.114;2023-11-19T14:15:08;0.87;;;0.87;;
9124;SDS011;4597;48.730;9.114;2023-11-19T14:17:35;0.60;;;0.60;;
9124;SDS011;4597;48.730;9.114;2023-11-19T14:20:04;0.60;;;0.60;;
9124;SDS011;4597;48.730;9.114;2023-11-19T14:22:38;0.70;;;0.70;;
9124;SDS011;4597;48.730;9.114;2023-11-19T14:25:05;0.50;;;0.50;;
9124;SDS011;4597;48.730;9.114;2023-11-19T14:27:34;0.50;;;0.50;;
9124;SDS011;4597;48.730;9.114;2023-11-19T14:30:07;0.60;;;0.60;;
9124;SDS011;4597;48.730;9.114;2023-11-19T14:32:38;0.50;;;0.50;;
9124;SDS011;4597;48.730;9.114;2023-11-19T14:35:05;0.50;;;0.50;;
9124;SDS011;4597;48.730;9.114;2023-11-19T14:37:32;0.93;;;0.50;;
9124;SDS011;4597;48.730;9.114;2023-11-19T14:39:57;0.80;;;0.80;;
9124;SDS011;4597;48.730;9.114;2023-11-19T14:42:24;0.70;;;0.70;;
9124;SDS011;4597;48.730;9.114;2023-11-19T14:44:50;0.70;;;0.70;;
9124;SDS011;4597;48.730;9.114;2023-11-19T14:47:17;1.10;;;0.70;;
9124;SDS011;4597;48.730;9.114;2023-11-19T14:49:43;0.60;;;0.60;;
9124;SDS011;4597;48.730;9.114;2023-11-19T14:52:09;0.80;;;0.80;;
9124;SDS011;4597;48.730;9.114;2023-11-19T14:54:35;0.50;;;0.50;;
9124;SDS011;4597;48.730;9.114;2023-11-19T14:57:01;0.83;;;0.43;;
9124;SDS011;4597;48.730;9.114;2023-11-19T14:59:26;0.70;;;0.70;;
9124;SDS011;4597;48.730;9.114;2023-11-19T15:01:53;1.23;;;0.70;;
9124;SDS011;4597;48.730;9.114;2023-11-19T15:04:18;0.60;;;0.60;;
9124;SDS011;4597;48.730;9.114;2023-11-19T15:06:44;1.83;;;0.70;;
9124;SDS011;4597;48.730;9.114;2023-11-19T15:09:09;0.70;;;0.70;;
9124;SDS011;4597;48.730;9.114;2023-11-19T15:11:41;0.60;;;0.60;;
9124;SDS011;4597;48.730;9.114;2023-11-19T15:14:06;0.67;;;0.67;;
9124;SDS011;4597;48.730;9.114;2023-11-19T15:16:32;0.67;;;0.67;;
9124;SDS011;4597;48.730;9.114;2023-11-19T15:18:59;0.57;;;0.57;;
9124;SDS011;4597;48.730;9.114;2023-11-19T15:21:28;0.70;;;0.70;;
9124;SDS011;4597;48.730;9.114;2023-11-19T15:23:54;0.50;;;0.50;;
9124;SDS011;4597;48.730;9.114;2023-11-19T15:26:20;0.50;;;0.50;;
9124;SDS011;4597;48.730;9.114;2023-11-19T15:28:46;0.47;;;0.47;;
9124;SDS011;4597;48.730;9.114;2023-11-19T15:31:11;0.77;;;0.70;;
9124;SDS011;4597;48.730;9.114;2023-11-19T15:33:37;0.40;;;0.40;;
9124;SDS011;4597;48.730;9.114;2023-11-19T15:36:04;0.60;;;0.60;;
9124;SDS011;4597;48.730;9.114;2023-11-19T15:38:32;0.77;;;0.77;;
9124;SDS011;4597;48.730;9.114;2023-11-19T15:40:58;0.73;;;0.73;;